createdAt,value
2022-09-06T00:01:12.626Z,13.09
2022-09-06T00:03:41.602Z,13.15
2022-09-06T00:06:14.879Z,13.44
2022-09-06T00:08:47.548Z,12.95
2022-09-06T00:11:16.104Z,12.98
2022-09-06T00:13:45.379Z,13.14
2022-09-06T00:16:20.350Z,13.11
2022-09-06T00:18:48.764Z,13.04
2022-09-06T00:21:19.562Z,13.02
2022-09-06T00:23:48.087Z,12.71
2022-09-06T00:26:16.530Z,12.72
2022-09-06T00:28:44.985Z,12.83
2022-09-06T00:31:25.152Z,12.93
2022-09-06T00:33:54.760Z,12.81
2022-09-06T00:36:23.581Z,12.74
2022-09-06T00:38:51.857Z,12.71
2022-09-06T00:41:20.651Z,12.71
2022-09-06T00:43:48.935Z,12.68
2022-09-06T00:46:23.076Z,12.60
2022-09-06T00:48:53.753Z,12.38
2022-09-06T00:51:22.261Z,12.40
2022-09-06T00:53:50.772Z,12.62
2022-09-06T00:56:19.018Z,12.48
2022-09-06T00:58:48.113Z,12.46
2022-09-06T01:01:16.691Z,12.57
2022-09-06T01:03:45.153Z,12.66
2022-09-06T01:06:24.931Z,12.42
2022-09-06T01:09:20.686Z,12.50
2022-09-06T01:12:08.152Z,12.43
2022-09-06T01:15:06.400Z,12.32
2022-09-06T01:17:53.247Z,12.45
2022-09-06T01:20:42.310Z,12.42
2022-09-06T01:23:29.158Z,12.33
2022-09-06T01:26:00.282Z,12.39
2022-09-06T01:28:34.386Z,12.41
2022-09-06T01:31:20.308Z,12.33
2022-09-06T01:34:08.363Z,12.23
2022-09-06T01:37:10.289Z,12.40
2022-09-06T01:39:40.564Z,12.42
2022-09-06T01:42:19.384Z,12.67
2022-09-06T01:44:55.455Z,12.48
2022-09-06T01:47:48.949Z,12.42
2022-09-06T01:50:21.030Z,12.46
2022-09-06T01:53:30.442Z,12.44
2022-09-06T01:56:20.903Z,12.34
2022-09-06T01:58:55.513Z,12.30
2022-09-06T02:02:05.611Z,12.49
2022-09-06T02:04:46.590Z,12.42
2022-09-06T02:07:29.316Z,12.37
2022-09-06T02:10:02.060Z,12.23
2022-09-06T02:12:30.495Z,12.05
2022-09-06T02:15:05.638Z,12.11
2022-09-06T02:17:36.549Z,12.09
2022-09-06T02:20:14.874Z,12.04
2022-09-06T02:22:45.254Z,12.20
2022-09-06T02:25:20.292Z,12.04
2022-09-06T02:27:48.631Z,12.05
2022-09-06T02:30:17.582Z,11.93
2022-09-06T02:32:54.123Z,11.96
2022-09-06T02:35:22.417Z,12.10
2022-09-06T02:37:50.956Z,11.86
2022-09-06T02:40:19.260Z,11.94
2022-09-06T02:42:47.685Z,11.95
2022-09-06T02:45:16.192Z,11.80
2022-09-06T02:47:44.484Z,11.75
2022-09-06T02:50:13.569Z,11.93
2022-09-06T02:52:42.464Z,11.91
2022-09-06T02:55:11.917Z,11.78
2022-09-06T02:57:40.760Z,11.83
2022-09-06T03:00:09.656Z,11.61
2022-09-06T03:02:37.926Z,11.65
2022-09-06T03:05:06.403Z,11.67
2022-09-06T03:07:35.172Z,11.55
2022-09-06T03:10:05.298Z,11.54
2022-09-06T03:12:33.607Z,11.57
2022-09-06T03:15:01.840Z,11.39
2022-09-06T03:17:30.060Z,11.38
2022-09-06T03:19:58.337Z,11.45
2022-09-06T03:22:26.790Z,11.44
2022-09-06T03:24:55.051Z,11.46
2022-09-06T03:27:23.791Z,11.55
2022-09-06T03:29:52.076Z,11.55
2022-09-06T03:32:20.436Z,11.40
2022-09-06T03:34:48.735Z,11.45
2022-09-06T03:37:17.048Z,11.51
2022-09-06T03:39:46.460Z,11.56
2022-09-06T03:42:15.425Z,11.31
2022-09-06T03:44:43.871Z,11.35
2022-09-06T03:47:12.176Z,11.44
2022-09-06T03:49:41.121Z,11.29
2022-09-06T03:52:09.543Z,11.30
2022-09-06T03:54:37.816Z,11.30
2022-09-06T03:57:06.149Z,11.26
2022-09-06T03:59:35.192Z,11.23
2022-09-06T04:02:03.661Z,11.17
2022-09-06T04:04:32.110Z,11.31
2022-09-06T04:07:00.513Z,11.48
2022-09-06T04:09:28.896Z,11.39
2022-09-06T04:11:57.655Z,11.50
2022-09-06T04:14:25.971Z,11.60
2022-09-06T04:16:54.364Z,11.51
2022-09-06T04:19:24.076Z,11.51
2022-09-06T04:21:52.299Z,11.59
2022-09-06T04:24:21.837Z,11.59
2022-09-06T04:26:50.116Z,11.69
2022-09-06T04:29:18.487Z,11.54
2022-09-06T04:31:47.383Z,11.56
2022-09-06T04:34:17.318Z,11.70
2022-09-06T04:36:48.466Z,11.60
2022-09-06T04:39:17.399Z,11.53
2022-09-06T04:41:45.892Z,11.71
2022-09-06T04:44:14.266Z,11.72
2022-09-06T04:46:42.761Z,11.66
2022-09-06T04:49:11.204Z,11.75
2022-09-06T04:51:39.908Z,11.61
2022-09-06T04:54:08.280Z,11.69
2022-09-06T04:56:36.677Z,11.62
2022-09-06T04:59:04.961Z,11.68
2022-09-06T05:01:33.390Z,11.71
2022-09-06T05:04:01.860Z,11.67
2022-09-06T05:06:30.371Z,11.91
2022-09-06T05:08:59.290Z,11.83
2022-09-06T05:11:27.944Z,11.89
2022-09-06T05:13:56.433Z,11.96
2022-09-06T05:16:25.405Z,12.19
2022-09-06T05:18:55.989Z,12.16
2022-09-06T05:21:31.684Z,12.14
2022-09-06T05:24:04.342Z,12.24
2022-09-06T05:26:32.949Z,12.32
2022-09-06T05:29:01.245Z,12.37
2022-09-06T05:31:31.175Z,12.54
2022-09-06T05:33:59.763Z,12.45
2022-09-06T05:36:28.825Z,12.41
2022-09-06T05:38:57.296Z,12.68
2022-09-06T05:41:26.147Z,12.72
2022-09-06T05:43:54.646Z,12.62
2022-09-06T05:46:23.014Z,12.57
2022-09-06T05:49:01.426Z,12.73
2022-09-06T05:51:29.853Z,12.73
2022-09-06T05:53:58.253Z,12.93
2022-09-06T05:56:26.627Z,12.86
2022-09-06T05:58:55.213Z,12.96
2022-09-06T06:01:27.598Z,12.98
2022-09-06T06:04:00.671Z,13.02
2022-09-06T06:06:31.124Z,13.03
2022-09-06T06:08:59.897Z,13.15
2022-09-06T06:11:28.494Z,13.30
2022-09-06T06:13:56.988Z,13.43
2022-09-06T06:16:25.909Z,13.59
2022-09-06T06:18:54.544Z,13.76
2022-09-06T06:21:26.088Z,13.75
2022-09-06T06:23:55.961Z,13.70
2022-09-06T06:26:24.735Z,13.79
2022-09-06T06:28:53.859Z,13.86
2022-09-06T06:31:22.933Z,14.08
2022-09-06T06:33:51.315Z,14.27
2022-09-06T06:36:22.051Z,14.36
2022-09-06T06:38:52.844Z,14.32
2022-09-06T06:41:24.304Z,14.36
2022-09-06T06:43:56.553Z,14.52
2022-09-06T06:46:26.962Z,14.50
2022-09-06T06:48:55.643Z,14.58
2022-09-06T06:51:29.035Z,14.70
2022-09-06T06:53:58.314Z,14.75
2022-09-06T06:56:31.459Z,14.85
2022-09-06T06:59:01.471Z,15.05
2022-09-06T07:01:31.310Z,14.97
2022-09-06T07:04:00.487Z,14.95
2022-09-06T07:09:18.674Z,15.23
2022-09-06T07:11:48.897Z,15.15
2022-09-06T07:14:17.969Z,15.27
2022-09-06T07:16:46.500Z,15.41
2022-09-06T07:22:05.370Z,15.29
2022-09-06T07:24:34.226Z,15.39
2022-09-06T07:29:51.845Z,15.56
2022-09-06T07:32:20.879Z,15.59
2022-09-06T07:34:49.266Z,15.80
2022-09-06T07:37:17.887Z,15.87
2022-09-06T07:39:46.575Z,15.90
2022-09-06T07:42:16.563Z,15.82
2022-09-06T07:44:44.929Z,16.07
2022-09-06T07:55:38.682Z,16.23
2022-09-06T07:58:07.640Z,16.43
2022-09-06T08:00:36.524Z,16.60
2022-09-06T08:03:04.939Z,16.47
2022-09-06T08:11:12.162Z,16.78
2022-09-06T08:13:40.523Z,16.95
2022-09-06T08:16:11.509Z,16.98
2022-09-06T08:18:40.122Z,17.04
2022-09-06T08:21:13.117Z,17.11
2022-09-06T08:23:45.350Z,17.20
2022-09-06T08:26:15.006Z,17.18
2022-09-06T08:28:43.585Z,17.28
2022-09-06T08:31:13.611Z,17.45
2022-09-06T08:33:42.457Z,17.60
2022-09-06T08:36:11.721Z,17.84
2022-09-06T08:38:41.381Z,17.83
2022-09-06T08:41:12.276Z,17.68
2022-09-06T08:43:48.997Z,17.83
2022-09-06T08:46:17.337Z,17.99
2022-09-06T08:48:46.037Z,18.03
2022-09-06T08:51:46.627Z,18.15
2022-09-06T08:54:22.798Z,18.18
2022-09-06T08:57:16.254Z,18.43
2022-09-06T08:59:44.952Z,18.52
2022-09-06T09:02:18.610Z,18.64
2022-09-06T09:04:53.957Z,18.64
2022-09-06T09:07:54.572Z,18.88
2022-09-06T09:10:29.621Z,18.79
2022-09-06T09:12:59.070Z,18.89
2022-09-06T09:15:29.130Z,19.09
2022-09-06T09:17:57.660Z,19.10
2022-09-06T09:20:26.050Z,19.27
2022-09-06T09:22:54.378Z,19.35
2022-09-06T09:25:23.672Z,19.52
2022-09-06T09:28:01.532Z,19.63
2022-09-06T09:30:49.141Z,19.65
2022-09-06T09:33:31.129Z,19.73
2022-09-06T09:36:10.417Z,19.77
2022-09-06T09:38:45.859Z,19.76
2022-09-06T09:41:34.503Z,19.64
2022-09-06T09:44:05.923Z,20.01
2022-09-06T09:46:39.363Z,20.13
2022-09-06T09:49:15.881Z,20.12
2022-09-06T09:51:46.388Z,20.26
2022-09-06T09:54:15.911Z,20.45
2022-09-06T09:56:50.047Z,20.38
2022-09-06T09:59:26.723Z,20.41
2022-09-06T10:01:57.408Z,20.54
2022-09-06T10:04:48.489Z,20.69
2022-09-06T10:07:18.767Z,20.58
2022-09-06T10:10:10.798Z,20.67
2022-09-06T10:12:40.557Z,20.77
2022-09-06T10:15:12.084Z,20.79
2022-09-06T10:17:52.871Z,20.91
2022-09-06T10:20:24.317Z,21.11
2022-09-06T10:23:17.795Z,21.09
2022-09-06T10:25:49.538Z,21.16
2022-09-06T10:28:58.458Z,21.35
2022-09-06T10:31:42.550Z,21.28
2022-09-06T10:34:53.919Z,21.30
2022-09-06T10:37:54.032Z,21.36
2022-09-06T10:40:29.213Z,21.44
2022-09-06T10:43:00.436Z,21.61
2022-09-06T10:46:09.740Z,21.36
2022-09-06T10:48:42.539Z,21.15
2022-09-06T10:51:29.541Z,21.11
2022-09-06T10:54:10.511Z,21.12
2022-09-06T10:56:56.605Z,21.13
2022-09-06T11:00:05.321Z,21.14
2022-09-06T11:05:52.183Z,21.33
2022-09-06T11:11:35.760Z,21.38
2022-09-06T11:14:09.356Z,21.37
2022-09-06T11:16:48.623Z,21.52
2022-09-06T11:19:35.171Z,21.64
2022-09-06T11:22:30.485Z,21.58
2022-09-06T11:25:05.921Z,21.66
2022-09-06T11:27:36.540Z,21.52
2022-09-06T11:30:07.775Z,21.58
2022-09-06T11:32:45.045Z,21.59
2022-09-06T11:35:33.108Z,21.33
2022-09-06T11:38:17.105Z,21.38
2022-09-06T11:40:48.888Z,21.27
2022-09-06T11:43:19.181Z,21.31
2022-09-06T11:45:51.895Z,21.37
2022-09-06T11:48:35.659Z,21.11
2022-09-06T11:51:19.824Z,21.28
2022-09-06T11:53:51.372Z,21.09
2022-09-06T11:56:34.748Z,21.03
2022-09-06T11:59:20.086Z,21.17
2022-09-06T12:02:09.027Z,21.05
2022-09-06T12:05:04.658Z,21.08
2022-09-06T12:07:36.203Z,21.15
2022-09-06T12:10:42.446Z,21.18
2022-09-06T12:13:43.206Z,21.24
2022-09-06T12:16:13.033Z,21.11
2022-09-06T12:18:52.341Z,21.01
2022-09-06T12:21:53.247Z,21.07
2022-09-06T12:24:34.542Z,21.19
2022-09-06T12:27:16.004Z,21.06
2022-09-06T12:29:50.686Z,21.07
2022-09-06T12:32:21.028Z,21.16
2022-09-06T12:37:56.316Z,21.29
2022-09-06T12:40:26.570Z,21.32
2022-09-06T12:42:55.949Z,21.43
2022-09-06T12:45:27.391Z,21.45
2022-09-06T12:48:08.850Z,21.58
2022-09-06T12:50:37.271Z,21.56
2022-09-06T12:53:22.764Z,21.53
2022-09-06T12:56:06.550Z,21.70
2022-09-06T12:58:36.536Z,21.69
2022-09-06T13:01:17.558Z,21.75
2022-09-06T13:03:54.398Z,21.63
2022-09-06T13:06:27.294Z,21.57
2022-09-06T13:08:57.428Z,21.72
2022-09-06T13:11:37.321Z,21.62
2022-09-06T13:14:14.398Z,21.59
2022-09-06T13:16:47.604Z,21.60
2022-09-06T13:19:30.113Z,21.58
2022-09-06T13:22:00.662Z,21.54
2022-09-06T13:24:36.313Z,21.40
2022-09-06T13:27:37.871Z,21.26
2022-09-06T13:30:10.248Z,21.25
2022-09-06T13:32:46.470Z,21.21
2022-09-06T13:35:24.335Z,21.15
2022-09-06T13:37:53.271Z,21.13
2022-09-06T13:41:09.687Z,21.09
2022-09-06T13:43:35.215Z,21.13
2022-09-06T13:46:08.211Z,21.09
2022-09-06T13:48:37.002Z,21.09
2022-09-06T13:51:10.733Z,20.94
2022-09-06T13:53:40.317Z,21.06
2022-09-06T13:56:09.088Z,20.96
2022-09-06T13:58:37.524Z,20.80
2022-09-06T14:01:10.266Z,20.87
2022-09-06T14:03:40.909Z,20.86
2022-09-06T14:06:11.554Z,20.83
2022-09-06T14:09:05.730Z,20.85
2022-09-06T14:11:30.479Z,20.82
2022-09-06T14:13:59.500Z,20.81
2022-09-06T14:16:29.046Z,20.70
2022-09-06T14:18:59.157Z,20.75
2022-09-06T14:21:27.587Z,20.71
2022-09-06T14:23:58.919Z,20.71
2022-09-06T14:26:30.563Z,20.75
2022-09-06T14:28:59.085Z,20.56
2022-09-06T14:31:28.020Z,20.55
2022-09-06T14:33:56.821Z,20.54
2022-09-06T14:36:27.977Z,20.49
2022-09-06T14:38:58.778Z,20.45
2022-09-06T14:41:27.657Z,20.53
2022-09-06T14:43:58.470Z,20.55
2022-09-06T14:46:30.494Z,20.52
2022-09-06T14:49:00.387Z,20.42
2022-09-06T14:51:29.320Z,20.55
2022-09-06T14:54:00.631Z,20.55
2022-09-06T14:56:30.739Z,20.55
2022-09-06T14:59:00.548Z,20.42
2022-09-06T15:01:33.062Z,20.55
2022-09-06T15:04:09.036Z,20.51
2022-09-06T15:06:40.509Z,20.48
2022-09-06T15:09:12.174Z,20.51
2022-09-06T15:11:51.986Z,20.58
2022-09-06T15:14:28.242Z,20.42
2022-09-06T15:17:00.161Z,20.64
2022-09-06T15:19:29.390Z,20.49
2022-09-06T15:21:58.169Z,20.48
2022-09-06T15:24:27.674Z,20.40
2022-09-06T15:27:00.239Z,20.39
2022-09-06T15:29:29.081Z,20.37
2022-09-06T15:31:58.773Z,20.35
2022-09-06T15:34:27.297Z,20.38
2022-09-06T15:36:57.356Z,20.34
2022-09-06T15:39:25.935Z,20.32
2022-09-06T15:41:58.276Z,20.27
2022-09-06T15:44:29.084Z,20.28
2022-09-06T15:46:59.630Z,20.24
2022-09-06T15:49:31.251Z,20.18
2022-09-06T15:52:02.373Z,20.18
2022-09-06T15:54:49.539Z,20.21
2022-09-06T15:57:18.764Z,20.19
2022-09-06T15:59:48.880Z,20.15
2022-09-06T16:02:17.400Z,20.09
2022-09-06T16:04:47.054Z,19.99
2022-09-06T16:07:16.221Z,20.05
2022-09-06T16:09:48.045Z,19.97
2022-09-06T16:12:17.003Z,19.96
2022-09-06T16:14:48.528Z,19.86
2022-09-06T16:17:21.929Z,19.80
2022-09-06T16:19:51.928Z,19.74
2022-09-06T16:22:24.025Z,19.59
2022-09-06T16:24:53.939Z,19.47
2022-09-06T16:27:22.353Z,19.45
2022-09-06T16:29:56.506Z,19.44
2022-09-06T16:32:26.270Z,19.40
2022-09-06T16:34:55.434Z,19.27
2022-09-06T16:37:24.616Z,19.24
2022-09-06T16:39:56.343Z,19.19
2022-09-06T16:42:25.782Z,19.12
2022-09-06T16:44:56.688Z,19.02
2022-09-06T16:47:25.235Z,18.99
2022-09-06T16:49:53.752Z,18.96
2022-09-06T16:52:24.319Z,19.04
2022-09-06T16:54:54.221Z,18.91
2022-09-06T16:57:23.191Z,18.93
2022-09-06T16:59:53.905Z,18.75
2022-09-06T17:02:23.521Z,18.96
2022-09-06T17:04:54.958Z,18.79
2022-09-06T17:07:24.179Z,18.71
2022-09-06T17:09:52.524Z,18.61
2022-09-06T17:12:21.384Z,18.49
2022-09-06T17:14:49.773Z,18.38
2022-09-06T17:17:18.769Z,18.33
2022-09-06T17:19:51.626Z,18.23
2022-09-06T17:22:23.102Z,18.43
2022-09-06T17:24:53.062Z,18.09
2022-09-06T17:27:23.507Z,18.15
2022-09-06T17:29:53.310Z,18.02
2022-09-06T17:32:25.007Z,17.90
2022-09-06T17:35:04.229Z,17.73
2022-09-06T17:37:35.749Z,17.73
2022-09-06T17:40:10.901Z,17.74
2022-09-06T17:42:39.413Z,17.73
2022-09-06T17:45:10.137Z,17.72
2022-09-06T17:47:38.743Z,17.62
2022-09-06T17:50:10.287Z,17.49
2022-09-06T17:52:40.443Z,17.35
2022-09-06T17:55:09.272Z,17.26
2022-09-06T17:57:38.283Z,17.29
2022-09-06T18:00:11.371Z,17.21
2022-09-06T18:02:41.383Z,17.17
2022-09-06T18:05:12.387Z,17.14
2022-09-06T18:07:42.259Z,17.30
2022-09-06T18:10:11.218Z,17.18
2022-09-06T18:12:39.623Z,17.30
2022-09-06T18:15:10.110Z,17.43
2022-09-06T18:17:38.630Z,17.29
2022-09-06T18:20:08.099Z,17.22
2022-09-06T18:22:43.976Z,17.02
2022-09-06T18:25:15.213Z,17.15
2022-09-06T18:27:50.477Z,17.00
2022-09-06T18:30:20.264Z,17.24
2022-09-06T18:32:48.855Z,17.13
2022-09-06T18:35:18.571Z,17.18
2022-09-06T18:37:48.148Z,17.34
2022-09-06T18:40:45.701Z,16.87
2022-09-06T18:46:13.952Z,16.84
2022-09-06T18:48:47.767Z,16.72
2022-09-06T18:51:16.734Z,16.67
2022-09-06T18:53:45.278Z,16.32
2022-09-06T18:56:14.909Z,16.29
2022-09-06T18:58:43.548Z,16.42
2022-09-06T19:01:14.280Z,16.61
2022-09-06T19:03:45.410Z,16.60
2022-09-06T19:06:17.017Z,16.40
2022-09-06T19:08:47.902Z,16.14
2022-09-06T19:11:19.549Z,16.02
2022-09-06T19:14:19.464Z,16.25
2022-09-06T19:16:55.056Z,16.40
2022-09-06T19:19:25.944Z,16.17
2022-09-06T19:21:59.797Z,15.90
2022-09-06T19:24:31.570Z,16.13
2022-09-06T19:27:05.715Z,16.26
2022-09-06T19:29:38.064Z,16.44
2022-09-06T19:32:16.221Z,16.27
2022-09-06T19:35:06.359Z,15.97
2022-09-06T19:37:38.518Z,16.16
2022-09-06T19:40:08.416Z,16.16
2022-09-06T19:42:41.139Z,15.87
2022-09-06T19:45:12.787Z,15.65
2022-09-06T19:47:43.778Z,15.79
2022-09-06T19:50:12.843Z,15.98
2022-09-06T19:52:42.641Z,15.98
2022-09-06T19:55:11.019Z,15.67
2022-09-06T19:57:40.034Z,15.62
2022-09-06T20:00:10.780Z,15.73
2022-09-06T20:02:43.084Z,15.53
2022-09-06T20:05:16.883Z,15.42
2022-09-06T20:07:45.299Z,15.47
2022-09-06T20:10:15.258Z,15.58
2022-09-06T20:12:47.540Z,15.71
2022-09-06T20:15:39.168Z,15.52
2022-09-06T20:18:20.349Z,15.46
2022-09-06T20:21:02.970Z,15.39
2022-09-06T20:23:32.282Z,15.28
2022-09-06T20:26:06.142Z,15.30
2022-09-06T20:28:38.704Z,15.49
2022-09-06T20:31:11.149Z,15.61
2022-09-06T20:33:40.521Z,15.70
2022-09-06T20:36:12.900Z,15.57
2022-09-06T20:38:43.270Z,15.44
2022-09-06T20:41:16.239Z,15.31
2022-09-06T20:43:44.683Z,15.27
2022-09-06T20:46:18.103Z,15.30
2022-09-06T20:48:52.568Z,15.27
2022-09-06T20:51:24.185Z,15.35
2022-09-06T20:53:55.121Z,15.07
2022-09-06T20:56:26.306Z,15.13
2022-09-06T20:59:03.483Z,15.25
2022-09-06T21:01:34.887Z,15.30
2022-09-06T21:04:04.876Z,15.30
2022-09-06T21:06:36.491Z,15.06
2022-09-06T21:09:10.878Z,14.75
2022-09-06T21:11:39.309Z,14.51
2022-09-06T21:14:07.936Z,14.77
2022-09-06T21:16:36.956Z,14.76
2022-09-06T21:19:08.779Z,14.82
2022-09-06T21:21:37.141Z,14.66
2022-09-06T21:24:06.657Z,14.64
2022-09-06T21:26:35.088Z,14.73
2022-09-06T21:29:03.961Z,14.72
2022-09-06T21:31:33.704Z,14.59
2022-09-06T21:34:03.747Z,14.48
2022-09-06T21:36:37.390Z,14.31
2022-09-06T21:39:09.849Z,14.40
2022-09-06T21:41:39.301Z,14.46
2022-09-06T21:44:08.228Z,14.23
2022-09-06T21:46:37.689Z,14.40
2022-09-06T21:49:10.398Z,14.55
2022-09-06T21:51:39.040Z,14.53
2022-09-06T21:54:07.431Z,14.43
2022-09-06T21:56:36.771Z,14.53
2022-09-06T21:59:05.352Z,14.81
2022-09-06T22:01:35.484Z,14.57
2022-09-06T22:04:04.464Z,14.39
2022-09-06T22:06:33.862Z,14.38
2022-09-06T22:09:03.942Z,14.29
2022-09-06T22:11:33.192Z,14.11
2022-09-06T22:14:04.291Z,14.03
2022-09-06T22:16:34.574Z,13.93
2022-09-06T22:19:08.347Z,14.09
2022-09-06T22:21:36.694Z,13.91
2022-09-06T22:24:07.663Z,13.90
2022-09-06T22:26:37.145Z,13.93
2022-09-06T22:29:07.103Z,13.84
2022-09-06T22:31:35.809Z,13.84
2022-09-06T22:34:04.929Z,14.11
2022-09-06T22:36:33.791Z,14.19
2022-09-06T22:39:02.096Z,14.02
2022-09-06T22:41:31.492Z,13.72
2022-09-06T22:44:00.852Z,13.54
2022-09-06T22:46:29.502Z,13.93
2022-09-06T22:48:58.687Z,14.09
2022-09-06T22:51:27.472Z,13.93
2022-09-06T22:53:55.898Z,13.52
2022-09-06T22:56:24.758Z,13.64
2022-09-06T22:58:53.129Z,13.81
2022-09-06T23:01:21.457Z,13.77
2022-09-06T23:03:51.466Z,13.62
2022-09-06T23:06:19.788Z,13.54
2022-09-06T23:08:48.156Z,13.56
2022-09-06T23:11:17.383Z,13.66
2022-09-06T23:13:46.432Z,13.65
2022-09-06T23:16:18.940Z,13.67
2022-09-06T23:18:48.086Z,13.42
2022-09-06T23:21:18.231Z,13.57
2022-09-06T23:23:47.127Z,13.58
2022-09-06T23:26:20.054Z,13.60
2022-09-06T23:28:51.890Z,13.57
2022-09-06T23:31:20.163Z,13.73
2022-09-06T23:33:51.896Z,13.65
2022-09-06T23:36:20.069Z,13.74
2022-09-06T23:38:48.352Z,13.62
2022-09-06T23:41:17.327Z,13.32
2022-09-06T23:43:45.670Z,13.62
2022-09-06T23:46:15.564Z,13.22
2022-09-06T23:48:43.897Z,13.33
2022-09-06T23:51:12.426Z,13.19
2022-09-06T23:53:41.356Z,13.19
2022-09-06T23:56:10.302Z,13.20
2022-09-06T23:58:39.360Z,13.37
